sensor_id;sensor_type;location;lat;lon;timestamp;P1;durP1;ratioP1;P2;durP2;ratioP2
22439;SDS011;11387;51.612;7.210;2023-02-05T00:00:26;28.95;;;11.80;;
22439;SDS011;11387;51.612;7.210;2023-02-05T00:02:55;28.15;;;11.40;;
22439;SDS011;11387;51.612;7.210;2023-02-05T00:05:23;27.60;;;11.13;;
22439;SDS011;11387;51.612;7.210;2023-02-05T00:07:52;33.67;;;11.30;;
22439;SDS011;11387;51.612;7.210;2023-02-05T00:10:21;26.05;;;10.65;;
22439;SDS011;11387;51.612;7.210;2023-02-05T00:12:50;39.05;;;14.13;;
22439;SDS011;11387;51.612;7.210;2023-02-05T00:15:18;36.53;;;12.18;;
22439;SDS011;11387;51.612;7.210;2023-02-05T00:17:48;26.60;;;11.98;;
22439;SDS011;11387;51.612;7.210;2023-02-05T00:20:17;34.42;;;11.50;;
22439;SDS011;11387;51.612;7.210;2023-02-05T00:22:46;28.15;;;12.15;;
22439;SDS011;11387;51.612;7.210;2023-02-05T00:25:15;32.95;;;12.82;;
22439;SDS011;11387;51.612;7.210;2023-02-05T00:27:43;36.10;;;14.65;;
22439;SDS011;11387;51.612;7.210;2023-02-05T00:30:12;31.52;;;13.02;;
22439;SDS011;11387;51.612;7.210;2023-02-05T00:32:41;34.17;;;13.40;;
22439;SDS011;11387;51.612;7.210;2023-02-05T00:35:11;30.00;;;12.70;;
22439;SDS011;11387;51.612;7.210;2023-02-05T00:37:41;38.17;;;13.93;;
22439;SDS011;11387;51.612;7.210;2023-02-05T00:40:10;41.67;;;13.43;;
22439;SDS011;11387;51.612;7.210;2023-02-05T00:42:38;40.15;;;13.55;;
22439;SDS011;11387;51.612;7.210;2023-02-05T00:45:08;35.65;;;13.82;;
22439;SDS011;11387;51.612;7.210;2023-02-05T00:47:36;29.65;;;12.63;;
22439;SDS011;11387;51.612;7.210;2023-02-05T00:50:05;30.70;;;12.77;;
22439;SDS011;11387;51.612;7.210;2023-02-05T00:52:35;31.20;;;13.57;;
22439;SDS011;11387;51.612;7.210;2023-02-05T00:55:04;38.08;;;14.60;;
22439;SDS011;11387;51.612;7.210;2023-02-05T00:57:33;41.03;;;15.00;;
22439;SDS011;11387;51.612;7.210;2023-02-05T01:00:02;32.95;;;13.18;;
22439;SDS011;11387;51.612;7.210;2023-02-05T01:02:33;40.33;;;13.40;;
22439;SDS011;11387;51.612;7.210;2023-02-05T01:05:02;44.38;;;14.48;;
22439;SDS011;11387;51.612;7.210;2023-02-05T01:07:30;45.33;;;14.23;;
22439;SDS011;11387;51.612;7.210;2023-02-05T01:10:00;34.70;;;14.07;;
22439;SDS011;11387;51.612;7.210;2023-02-05T01:12:31;32.75;;;14.13;;
22439;SDS011;11387;51.612;7.210;2023-02-05T01:15:00;29.90;;;12.77;;
22439;SDS011;11387;51.612;7.210;2023-02-05T01:17:29;39.10;;;15.35;;
22439;SDS011;11387;51.612;7.210;2023-02-05T01:19:57;40.13;;;13.18;;
22439;SDS011;11387;51.612;7.210;2023-02-05T01:22:26;40.65;;;14.15;;
22439;SDS011;11387;51.612;7.210;2023-02-05T01:24:54;35.75;;;14.50;;
22439;SDS011;11387;51.612;7.210;2023-02-05T01:27:24;51.55;;;14.02;;
22439;SDS011;11387;51.612;7.210;2023-02-05T01:29:58;38.35;;;14.63;;
22439;SDS011;11387;51.612;7.210;2023-02-05T01:32:26;41.83;;;15.85;;
22439;SDS011;11387;51.612;7.210;2023-02-05T01:34:55;42.72;;;15.93;;
22439;SDS011;11387;51.612;7.210;2023-02-05T01:37:24;35.15;;;14.20;;
22439;SDS011;11387;51.612;7.210;2023-02-05T01:39:52;30.75;;;14.60;;
22439;SDS011;11387;51.612;7.210;2023-02-05T01:42:22;41.22;;;14.95;;
22439;SDS011;11387;51.612;7.210;2023-02-05T01:48:17;43.42;;;16.23;;
22439;SDS011;11387;51.612;7.210;2023-02-05T01:50:52;37.67;;;15.05;;
22439;SDS011;11387;51.612;7.210;2023-02-05T01:53:25;39.33;;;13.52;;
22439;SDS011;11387;51.612;7.210;2023-02-05T01:55:58;36.47;;;14.23;;
22439;SDS011;11387;51.612;7.210;2023-02-05T01:58:31;42.25;;;15.05;;
22439;SDS011;11387;51.612;7.210;2023-02-05T02:01:04;41.35;;;15.38;;
22439;SDS011;11387;51.612;7.210;2023-02-05T02:03:33;36.80;;;14.95;;
22439;SDS011;11387;51.612;7.210;2023-02-05T02:06:03;36.53;;;13.27;;
22439;SDS011;11387;51.612;7.210;2023-02-05T02:08:31;45.72;;;14.95;;
22439;SDS011;11387;51.612;7.210;2023-02-05T02:11:00;39.38;;;14.63;;
22439;SDS011;11387;51.612;7.210;2023-02-05T02:13:32;40.03;;;14.70;;
22439;SDS011;11387;51.612;7.210;2023-02-05T02:16:02;44.83;;;15.50;;
22439;SDS011;11387;51.612;7.210;2023-02-05T02:18:35;45.17;;;15.45;;
22439;SDS011;11387;51.612;7.210;2023-02-05T02:21:12;42.30;;;14.48;;
22439;SDS011;11387;51.612;7.210;2023-02-05T02:24:00;43.47;;;16.33;;
22439;SDS011;11387;51.612;7.210;2023-02-05T02:26:42;55.78;;;16.92;;
22439;SDS011;11387;51.612;7.210;2023-02-05T02:29:24;41.70;;;17.10;;
22439;SDS011;11387;51.612;7.210;2023-02-05T02:32:02;49.20;;;16.20;;
22439;SDS011;11387;51.612;7.210;2023-02-05T02:34:40;50.10;;;15.80;;
22439;SDS011;11387;51.612;7.210;2023-02-05T02:37:16;53.40;;;14.52;;
22439;SDS011;11387;51.612;7.210;2023-02-05T02:39:52;48.33;;;15.23;;
22439;SDS011;11387;51.612;7.210;2023-02-05T02:42:28;44.97;;;14.50;;
22439;SDS011;11387;51.612;7.210;2023-02-05T02:45:04;45.35;;;14.20;;
22439;SDS011;11387;51.612;7.210;2023-02-05T02:47:36;35.28;;;15.05;;
22439;SDS011;11387;51.612;7.210;2023-02-05T02:50:08;49.15;;;15.48;;
22439;SDS011;11387;51.612;7.210;2023-02-05T02:52:41;49.65;;;16.73;;
22439;SDS011;11387;51.612;7.210;2023-02-05T02:55:13;48.88;;;15.20;;
22439;SDS011;11387;51.612;7.210;2023-02-05T02:57:44;61.40;;;17.02;;
22439;SDS011;11387;51.612;7.210;2023-02-05T03:00:17;39.85;;;13.82;;
22439;SDS011;11387;51.612;7.210;2023-02-05T03:02:48;45.05;;;14.10;;
22439;SDS011;11387;51.612;7.210;2023-02-05T03:05:21;49.97;;;15.50;;
22439;SDS011;11387;51.612;7.210;2023-02-05T03:07:53;41.53;;;14.95;;
22439;SDS011;11387;51.612;7.210;2023-02-05T03:10:29;44.83;;;14.85;;
22439;SDS011;11387;51.612;7.210;2023-02-05T03:13:03;55.15;;;16.75;;
22439;SDS011;11387;51.612;7.210;2023-02-05T03:15:33;44.28;;;16.17;;
22439;SDS011;11387;51.612;7.210;2023-02-05T03:18:02;44.88;;;16.27;;
22439;SDS011;11387;51.612;7.210;2023-02-05T03:20:32;43.50;;;16.35;;
22439;SDS011;11387;51.612;7.210;2023-02-05T03:23:03;55.13;;;16.45;;
22439;SDS011;11387;51.612;7.210;2023-02-05T03:25:32;52.20;;;15.45;;
22439;SDS011;11387;51.612;7.210;2023-02-05T03:28:01;50.17;;;16.02;;
22439;SDS011;11387;51.612;7.210;2023-02-05T03:30:32;42.20;;;14.80;;
22439;SDS011;11387;51.612;7.210;2023-02-05T03:33:15;53.28;;;15.32;;
22439;SDS011;11387;51.612;7.210;2023-02-05T03:35:55;47.97;;;13.65;;
22439;SDS011;11387;51.612;7.210;2023-02-05T03:38:35;52.55;;;15.90;;
22439;SDS011;11387;51.612;7.210;2023-02-05T03:41:15;49.50;;;12.52;;
22439;SDS011;11387;51.612;7.210;2023-02-05T03:44:15;49.22;;;13.55;;
22439;SDS011;11387;51.612;7.210;2023-02-05T03:46:57;42.78;;;14.15;;
22439;SDS011;11387;51.612;7.210;2023-02-05T03:49:31;41.67;;;13.82;;
22439;SDS011;11387;51.612;7.210;2023-02-05T03:52:11;47.22;;;14.15;;
22439;SDS011;11387;51.612;7.210;2023-02-05T03:54:46;56.03;;;13.60;;
22439;SDS011;11387;51.612;7.210;2023-02-05T03:57:21;52.70;;;14.10;;
22439;SDS011;11387;51.612;7.210;2023-02-05T03:59:53;58.05;;;14.45;;
22439;SDS011;11387;51.612;7.210;2023-02-05T04:02:25;46.85;;;12.68;;
22439;SDS011;11387;51.612;7.210;2023-02-05T04:04:54;53.63;;;14.98;;
22439;SDS011;11387;51.612;7.210;2023-02-05T04:07:22;48.58;;;13.85;;
22439;SDS011;11387;51.612;7.210;2023-02-05T04:09:50;55.55;;;15.23;;
22439;SDS011;11387;51.612;7.210;2023-02-05T04:12:19;44.30;;;12.23;;
22439;SDS011;11387;51.612;7.210;2023-02-05T04:14:47;44.75;;;14.05;;
22439;SDS011;11387;51.612;7.210;2023-02-05T04:17:16;52.42;;;13.90;;
22439;SDS011;11387;51.612;7.210;2023-02-05T04:19:46;56.83;;;15.07;;
22439;SDS011;11387;51.612;7.210;2023-02-05T04:22:14;59.13;;;14.60;;
22439;SDS011;11387;51.612;7.210;2023-02-05T04:24:43;53.60;;;15.07;;
22439;SDS011;11387;51.612;7.210;2023-02-05T04:27:11;52.05;;;15.70;;
22439;SDS011;11387;51.612;7.210;2023-02-05T04:29:41;57.75;;;17.58;;
22439;SDS011;11387;51.612;7.210;2023-02-05T04:32:09;67.80;;;18.00;;
22439;SDS011;11387;51.612;7.210;2023-02-05T04:34:38;50.58;;;16.63;;
22439;SDS011;11387;51.612;7.210;2023-02-05T04:37:07;64.63;;;17.52;;
22439;SDS011;11387;51.612;7.210;2023-02-05T04:39:36;60.33;;;17.83;;
22439;SDS011;11387;51.612;7.210;2023-02-05T04:42:04;70.30;;;20.45;;
22439;SDS011;11387;51.612;7.210;2023-02-05T04:44:33;61.47;;;20.35;;
22439;SDS011;11387;51.612;7.210;2023-02-05T04:47:01;74.22;;;22.25;;
22439;SDS011;11387;51.612;7.210;2023-02-05T04:49:30;76.80;;;24.77;;
22439;SDS011;11387;51.612;7.210;2023-02-05T04:51:59;77.53;;;25.92;;
22439;SDS011;11387;51.612;7.210;2023-02-05T04:54:29;85.38;;;26.95;;
22439;SDS011;11387;51.612;7.210;2023-02-05T04:56:57;78.70;;;25.73;;
22439;SDS011;11387;51.612;7.210;2023-02-05T04:59:26;89.25;;;26.85;;
22439;SDS011;11387;51.612;7.210;2023-02-05T05:01:56;87.68;;;26.27;;
22439;SDS011;11387;51.612;7.210;2023-02-05T05:04:24;88.28;;;27.73;;
22439;SDS011;11387;51.612;7.210;2023-02-05T05:06:53;92.00;;;27.65;;
22439;SDS011;11387;51.612;7.210;2023-02-05T05:09:21;77.43;;;27.65;;
22439;SDS011;11387;51.612;7.210;2023-02-05T05:11:52;79.40;;;25.98;;
22439;SDS011;11387;51.612;7.210;2023-02-05T05:14:22;80.22;;;26.08;;
22439;SDS011;11387;51.612;7.210;2023-02-05T05:16:51;75.85;;;25.05;;
22439;SDS011;11387;51.612;7.210;2023-02-05T05:19:19;92.78;;;29.27;;
22439;SDS011;11387;51.612;7.210;2023-02-05T05:21:47;83.75;;;28.90;;
22439;SDS011;11387;51.612;7.210;2023-02-05T05:24:16;92.22;;;28.45;;
22439;SDS011;11387;51.612;7.210;2023-02-05T05:26:44;77.15;;;28.98;;
22439;SDS011;11387;51.612;7.210;2023-02-05T05:29:14;105.40;;;28.90;;
22439;SDS011;11387;51.612;7.210;2023-02-05T05:31:43;73.45;;;27.00;;
22439;SDS011;11387;51.612;7.210;2023-02-05T05:34:11;84.93;;;27.02;;
22439;SDS011;11387;51.612;7.210;2023-02-05T05:36:40;89.00;;;31.25;;
22439;SDS011;11387;51.612;7.210;2023-02-05T05:39:09;77.47;;;27.10;;
22439;SDS011;11387;51.612;7.210;2023-02-05T05:41:56;89.75;;;29.15;;
22439;SDS011;11387;51.612;7.210;2023-02-05T05:44:43;80.40;;;28.52;;
22439;SDS011;11387;51.612;7.210;2023-02-05T05:47:16;76.47;;;29.75;;
22439;SDS011;11387;51.612;7.210;2023-02-05T05:49:44;98.53;;;34.17;;
22439;SDS011;11387;51.612;7.210;2023-02-05T05:52:13;93.75;;;34.72;;
22439;SDS011;11387;51.612;7.210;2023-02-05T05:54:41;110.20;;;41.65;;
22439;SDS011;11387;51.612;7.210;2023-02-05T05:57:10;127.15;;;44.47;;
22439;SDS011;11387;51.612;7.210;2023-02-05T05:59:38;127.85;;;43.35;;
22439;SDS011;11387;51.612;7.210;2023-02-05T06:02:08;122.43;;;43.80;;
22439;SDS011;11387;51.612;7.210;2023-02-05T06:04:37;125.95;;;44.53;;
22439;SDS011;11387;51.612;7.210;2023-02-05T06:07:05;139.43;;;47.80;;
22439;SDS011;11387;51.612;7.210;2023-02-05T06:09:34;117.72;;;45.60;;
22439;SDS011;11387;51.612;7.210;2023-02-05T06:12:02;127.20;;;44.13;;
22439;SDS011;11387;51.612;7.210;2023-02-05T06:14:31;134.63;;;45.88;;
22439;SDS011;11387;51.612;7.210;2023-02-05T06:16:59;118.85;;;44.03;;
22439;SDS011;11387;51.612;7.210;2023-02-05T06:19:29;143.68;;;46.47;;
22439;SDS011;11387;51.612;7.210;2023-02-05T06:21:58;135.40;;;44.97;;
22439;SDS011;11387;51.612;7.210;2023-02-05T06:24:27;129.02;;;44.10;;
22439;SDS011;11387;51.612;7.210;2023-02-05T06:26:57;142.15;;;46.25;;
22439;SDS011;11387;51.612;7.210;2023-02-05T06:29:25;134.43;;;45.20;;
22439;SDS011;11387;51.612;7.210;2023-02-05T06:31:54;143.68;;;46.80;;
22439;SDS011;11387;51.612;7.210;2023-02-05T06:34:22;151.57;;;48.42;;
22439;SDS011;11387;51.612;7.210;2023-02-05T06:36:52;144.30;;;45.92;;
22439;SDS011;11387;51.612;7.210;2023-02-05T06:39:21;136.40;;;47.60;;
22439;SDS011;11387;51.612;7.210;2023-02-05T06:41:51;138.10;;;48.60;;
22439;SDS011;11387;51.612;7.210;2023-02-05T06:44:19;152.15;;;49.15;;
22439;SDS011;11387;51.612;7.210;2023-02-05T06:46:48;143.82;;;51.03;;
22439;SDS011;11387;51.612;7.210;2023-02-05T06:49:16;130.00;;;47.72;;
22439;SDS011;11387;51.612;7.210;2023-02-05T06:51:45;143.25;;;46.28;;
22439;SDS011;11387;51.612;7.210;2023-02-05T06:54:15;129.00;;;46.72;;
22439;SDS011;11387;51.612;7.210;2023-02-05T06:56:44;119.70;;;42.97;;
22439;SDS011;11387;51.612;7.210;2023-02-05T06:59:13;120.18;;;43.83;;
22439;SDS011;11387;51.612;7.210;2023-02-05T07:01:41;115.13;;;44.33;;
22439;SDS011;11387;51.612;7.210;2023-02-05T07:04:10;122.03;;;45.47;;
22439;SDS011;11387;51.612;7.210;2023-02-05T07:06:39;117.43;;;44.05;;
22439;SDS011;11387;51.612;7.210;2023-02-05T07:09:07;111.03;;;44.72;;
22439;SDS011;11387;51.612;7.210;2023-02-05T07:11:37;107.80;;;42.13;;
22439;SDS011;11387;51.612;7.210;2023-02-05T07:14:05;113.03;;;42.13;;
22439;SDS011;11387;51.612;7.210;2023-02-05T07:16:34;120.75;;;45.58;;
22439;SDS011;11387;51.612;7.210;2023-02-05T07:19:02;116.25;;;45.40;;
22439;SDS011;11387;51.612;7.210;2023-02-05T07:21:31;118.63;;;42.63;;
22439;SDS011;11387;51.612;7.210;2023-02-05T07:24:00;105.45;;;41.33;;
22439;SDS011;11387;51.612;7.210;2023-02-05T07:26:29;99.88;;;39.60;;
22439;SDS011;11387;51.612;7.210;2023-02-05T07:28:58;100.70;;;39.75;;
22439;SDS011;11387;51.612;7.210;2023-02-05T07:31:27;103.93;;;41.70;;
22439;SDS011;11387;51.612;7.210;2023-02-05T07:33:56;98.72;;;38.55;;
22439;SDS011;11387;51.612;7.210;2023-02-05T07:36:24;95.72;;;38.95;;
22439;SDS011;11387;51.612;7.210;2023-02-05T07:38:53;85.07;;;35.42;;
22439;SDS011;11387;51.612;7.210;2023-02-05T07:41:21;88.03;;;36.97;;
22439;SDS011;11387;51.612;7.210;2023-02-05T07:43:50;103.45;;;39.15;;
22439;SDS011;11387;51.612;7.210;2023-02-05T07:46:20;88.07;;;36.70;;
22439;SDS011;11387;51.612;7.210;2023-02-05T07:48:49;85.93;;;34.67;;
22439;SDS011;11387;51.612;7.210;2023-02-05T07:51:19;79.30;;;35.25;;
22439;SDS011;11387;51.612;7.210;2023-02-05T07:53:48;82.65;;;35.45;;
22439;SDS011;11387;51.612;7.210;2023-02-05T07:56:18;83.85;;;36.10;;
22439;SDS011;11387;51.612;7.210;2023-02-05T07:58:47;87.32;;;34.85;;
22439;SDS011;11387;51.612;7.210;2023-02-05T08:01:16;75.82;;;31.83;;
22439;SDS011;11387;51.612;7.210;2023-02-05T08:03:46;91.45;;;34.83;;
22439;SDS011;11387;51.612;7.210;2023-02-05T08:06:15;80.32;;;34.33;;
22439;SDS011;11387;51.612;7.210;2023-02-05T08:08:43;74.65;;;33.05;;
22439;SDS011;11387;51.612;7.210;2023-02-05T08:11:12;78.50;;;31.73;;
22439;SDS011;11387;51.612;7.210;2023-02-05T08:13:42;71.10;;;31.13;;
22439;SDS011;11387;51.612;7.210;2023-02-05T08:16:11;77.93;;;33.17;;
22439;SDS011;11387;51.612;7.210;2023-02-05T08:18:43;75.38;;;31.92;;
22439;SDS011;11387;51.612;7.210;2023-02-05T08:21:16;65.15;;;29.02;;
22439;SDS011;11387;51.612;7.210;2023-02-05T08:23:45;59.40;;;27.90;;
22439;SDS011;11387;51.612;7.210;2023-02-05T08:26:13;64.00;;;28.38;;
22439;SDS011;11387;51.612;7.210;2023-02-05T08:28:42;45.80;;;21.13;;
22439;SDS011;11387;51.612;7.210;2023-02-05T08:31:13;39.65;;;17.95;;
22439;SDS011;11387;51.612;7.210;2023-02-05T08:33:43;36.88;;;17.63;;
22439;SDS011;11387;51.612;7.210;2023-02-05T08:36:14;28.58;;;14.90;;
22439;SDS011;11387;51.612;7.210;2023-02-05T08:38:42;29.90;;;13.02;;
22439;SDS011;11387;51.612;7.210;2023-02-05T08:41:11;20.42;;;10.60;;
22439;SDS011;11387;51.612;7.210;2023-02-05T08:43:39;19.48;;;9.65;;
22439;SDS011;11387;51.612;7.210;2023-02-05T08:46:09;10.50;;;5.78;;
22439;SDS011;11387;51.612;7.210;2023-02-05T08:48:40;10.30;;;5.28;;
22439;SDS011;11387;51.612;7.210;2023-02-05T08:51:09;9.45;;;3.92;;
22439;SDS011;11387;51.612;7.210;2023-02-05T08:53:39;5.65;;;2.60;;
22439;SDS011;11387;51.612;7.210;2023-02-05T08:56:08;7.53;;;2.55;;
22439;SDS011;11387;51.612;7.210;2023-02-05T08:58:38;6.15;;;2.53;;
22439;SDS011;11387;51.612;7.210;2023-02-05T09:01:09;5.03;;;1.75;;
22439;SDS011;11387;51.612;7.210;2023-02-05T09:03:39;5.05;;;1.83;;
22439;SDS011;11387;51.612;7.210;2023-02-05T09:06:09;14.05;;;1.85;;
22439;SDS011;11387;51.612;7.210;2023-02-05T09:08:40;4.65;;;1.58;;
22439;SDS011;11387;51.612;7.210;2023-02-05T09:11:09;5.93;;;1.42;;
22439;SDS011;11387;51.612;7.210;2023-02-05T09:13:39;4.43;;;1.38;;
22439;SDS011;11387;51.612;7.210;2023-02-05T09:16:08;4.63;;;1.10;;
22439;SDS011;11387;51.612;7.210;2023-02-05T09:18:37;5.38;;;1.00;;
22439;SDS011;11387;51.612;7.210;2023-02-05T09:21:15;7.25;;;1.10;;
22439;SDS011;11387;51.612;7.210;2023-02-05T09:23:45;3.95;;;1.38;;
22439;SDS011;11387;51.612;7.210;2023-02-05T09:26:13;6.95;;;1.15;;
22439;SDS011;11387;51.612;7.210;2023-02-05T09:28:42;6.75;;;1.20;;
22439;SDS011;11387;51.612;7.210;2023-02-05T09:31:12;3.65;;;0.88;;
22439;SDS011;11387;51.612;7.210;2023-02-05T09:33:42;6.07;;;1.00;;
22439;SDS011;11387;51.612;7.210;2023-02-05T09:36:13;4.20;;;0.98;;
22439;SDS011;11387;51.612;7.210;2023-02-05T09:38:43;11.15;;;1.58;;
22439;SDS011;11387;51.612;7.210;2023-02-05T09:41:15;7.50;;;1.30;;
22439;SDS011;11387;51.612;7.210;2023-02-05T09:43:51;7.65;;;1.50;;
22439;SDS011;11387;51.612;7.210;2023-02-05T09:46:26;7.03;;;1.02;;
22439;SDS011;11387;51.612;7.210;2023-02-05T09:49:04;5.38;;;1.02;;
22439;SDS011;11387;51.612;7.210;2023-02-05T09:51:41;8.55;;;1.20;;
22439;SDS011;11387;51.612;7.210;2023-02-05T09:54:14;9.57;;;1.23;;
22439;SDS011;11387;51.612;7.210;2023-02-05T09:56:46;7.85;;;1.45;;
22439;SDS011;11387;51.612;7.210;2023-02-05T09:59:16;6.68;;;0.95;;
22439;SDS011;11387;51.612;7.210;2023-02-05T10:01:49;2.50;;;0.65;;
22439;SDS011;11387;51.612;7.210;2023-02-05T10:04:19;3.20;;;0.77;;
22439;SDS011;11387;51.612;7.210;2023-02-05T10:07:01;7.80;;;1.05;;
22439;SDS011;11387;51.612;7.210;2023-02-05T10:09:46;6.90;;;1.00;;
22439;SDS011;11387;51.612;7.210;2023-02-05T10:12:26;4.57;;;1.00;;
22439;SDS011;11387;51.612;7.210;2023-02-05T10:15:10;10.55;;;1.15;;
22439;SDS011;11387;51.612;7.210;2023-02-05T10:17:54;9.80;;;1.23;;
22439;SDS011;11387;51.612;7.210;2023-02-05T10:20:34;7.82;;;1.45;;
22439;SDS011;11387;51.612;7.210;2023-02-05T10:23:17;10.20;;;1.83;;
22439;SDS011;11387;51.612;7.210;2023-02-05T10:26:04;10.70;;;1.27;;
22439;SDS011;11387;51.612;7.210;2023-02-05T10:28:44;5.57;;;1.50;;
22439;SDS011;11387;51.612;7.210;2023-02-05T10:31:26;5.15;;;1.50;;
22439;SDS011;11387;51.612;7.210;2023-02-05T10:34:14;8.95;;;2.30;;
22439;SDS011;11387;51.612;7.210;2023-02-05T10:36:45;8.38;;;2.22;;
22439;SDS011;11387;51.612;7.210;2023-02-05T10:39:18;7.20;;;1.85;;
22439;SDS011;11387;51.612;7.210;2023-02-05T10:41:50;14.43;;;3.17;;
22439;SDS011;11387;51.612;7.210;2023-02-05T10:44:25;9.10;;;3.10;;
22439;SDS011;11387;51.612;7.210;2023-02-05T10:46:59;11.65;;;2.70;;
22439;SDS011;11387;51.612;7.210;2023-02-05T10:49:37;7.32;;;2.63;;
22439;SDS011;11387;51.612;7.210;2023-02-05T10:52:13;8.85;;;3.08;;
22439;SDS011;11387;51.612;7.210;2023-02-05T10:54:43;12.13;;;2.33;;
22439;SDS011;11387;51.612;7.210;2023-02-05T10:57:15;7.15;;;2.38;;
22439;SDS011;11387;51.612;7.210;2023-02-05T10:59:48;5.72;;;1.88;;
22439;SDS011;11387;51.612;7.210;2023-02-05T11:02:21;9.85;;;1.92;;
22439;SDS011;11387;51.612;7.210;2023-02-05T11:04:55;9.05;;;1.77;;
22439;SDS011;11387;51.612;7.210;2023-02-05T11:07:30;9.73;;;1.48;;
22439;SDS011;11387;51.612;7.210;2023-02-05T11:10:12;6.78;;;1.50;;
22439;SDS011;11387;51.612;7.210;2023-02-05T11:12:44;9.52;;;1.80;;
22439;SDS011;11387;51.612;7.210;2023-02-05T11:15:18;6.63;;;1.00;;
22439;SDS011;11387;51.612;7.210;2023-02-05T11:17:52;4.32;;;1.38;;
22439;SDS011;11387;51.612;7.210;2023-02-05T11:20:24;7.47;;;1.48;;
22439;SDS011;11387;51.612;7.210;2023-02-05T11:23:14;4.55;;;0.90;;
22439;SDS011;11387;51.612;7.210;2023-02-05T11:25:48;5.22;;;1.13;;
22439;SDS011;11387;51.612;7.210;2023-02-05T11:28:22;10.30;;;1.02;;
22439;SDS011;11387;51.612;7.210;2023-02-05T11:30:54;4.97;;;1.35;;
22439;SDS011;11387;51.612;7.210;2023-02-05T11:33:26;11.32;;;1.25;;
22439;SDS011;11387;51.612;7.210;2023-02-05T11:35:58;8.02;;;1.15;;
22439;SDS011;11387;51.612;7.210;2023-02-05T11:38:30;6.80;;;1.38;;
22439;SDS011;11387;51.612;7.210;2023-02-05T11:41:05;5.90;;;1.48;;
22439;SDS011;11387;51.612;7.210;2023-02-05T11:43:37;7.07;;;2.08;;
22439;SDS011;11387;51.612;7.210;2023-02-05T11:46:13;7.82;;;2.15;;
22439;SDS011;11387;51.612;7.210;2023-02-05T11:48:45;7.30;;;1.88;;
22439;SDS011;11387;51.612;7.210;2023-02-05T11:51:26;8.05;;;2.50;;
22439;SDS011;11387;51.612;7.210;2023-02-05T11:54:02;3.55;;;1.90;;
22439;SDS011;11387;51.612;7.210;2023-02-05T11:56:33;8.52;;;2.20;;
22439;SDS011;11387;51.612;7.210;2023-02-05T11:59:03;11.20;;;2.70;;
22439;SDS011;11387;51.612;7.210;2023-02-05T12:01:34;7.28;;;2.58;;
22439;SDS011;11387;51.612;7.210;2023-02-05T12:04:09;13.00;;;3.10;;
22439;SDS011;11387;51.612;7.210;2023-02-05T12:06:45;11.40;;;3.40;;
22439;SDS011;11387;51.612;7.210;2023-02-05T12:09:18;13.25;;;3.70;;
22439;SDS011;11387;51.612;7.210;2023-02-05T12:11:54;7.47;;;3.90;;
22439;SDS011;11387;51.612;7.210;2023-02-05T12:14:41;8.90;;;4.20;;
22439;SDS011;11387;51.612;7.210;2023-02-05T12:17:17;12.23;;;4.75;;
22439;SDS011;11387;51.612;7.210;2023-02-05T12:19:55;10.23;;;4.65;;
22439;SDS011;11387;51.612;7.210;2023-02-05T12:22:33;8.52;;;4.07;;
22439;SDS011;11387;51.612;7.210;2023-02-05T12:25:19;13.00;;;4.65;;
22439;SDS011;11387;51.612;7.210;2023-02-05T12:27:59;13.25;;;5.15;;
22439;SDS011;11387;51.612;7.210;2023-02-05T12:30:45;9.52;;;5.18;;
22439;SDS011;11387;51.612;7.210;2023-02-05T12:39:13;9.77;;;4.68;;
22439;SDS011;11387;51.612;7.210;2023-02-05T12:41:55;8.73;;;5.53;;
22439;SDS011;11387;51.612;7.210;2023-02-05T12:44:36;7.10;;;4.78;;
22439;SDS011;11387;51.612;7.210;2023-02-05T12:47:16;8.32;;;5.05;;
22439;SDS011;11387;51.612;7.210;2023-02-05T12:50:02;8.25;;;5.30;;
22439;SDS011;11387;51.612;7.210;2023-02-05T12:52:46;8.38;;;5.47;;
22439;SDS011;11387;51.612;7.210;2023-02-05T12:55:28;7.50;;;5.13;;
22439;SDS011;11387;51.612;7.210;2023-02-05T12:58:08;9.30;;;5.28;;
22439;SDS011;11387;51.612;7.210;2023-02-05T13:00:40;7.00;;;4.50;;
22439;SDS011;11387;51.612;7.210;2023-02-05T13:03:16;10.40;;;3.83;;
22439;SDS011;11387;51.612;7.210;2023-02-05T13:05:54;14.00;;;5.50;;
22439;SDS011;11387;51.612;7.210;2023-02-05T13:08:30;8.00;;;4.53;;
22439;SDS011;11387;51.612;7.210;2023-02-05T13:11:05;11.88;;;4.88;;
22439;SDS011;11387;51.612;7.210;2023-02-05T13:13:39;18.17;;;5.43;;
22439;SDS011;11387;51.612;7.210;2023-02-05T13:16:15;17.52;;;5.07;;
22439;SDS011;11387;51.612;7.210;2023-02-05T13:18:48;12.38;;;5.15;;
22439;SDS011;11387;51.612;7.210;2023-02-05T13:21:24;12.88;;;5.00;;
22439;SDS011;11387;51.612;7.210;2023-02-05T13:24:17;10.85;;;4.78;;
22439;SDS011;11387;51.612;7.210;2023-02-05T13:27:13;13.73;;;3.97;;
22439;SDS011;11387;51.612;7.210;2023-02-05T13:30:05;16.77;;;5.28;;
22439;SDS011;11387;51.612;7.210;2023-02-05T13:32:39;20.92;;;5.28;;
22439;SDS011;11387;51.612;7.210;2023-02-05T13:35:12;12.57;;;4.68;;
22439;SDS011;11387;51.612;7.210;2023-02-05T13:37:47;17.98;;;5.18;;
22439;SDS011;11387;51.612;7.210;2023-02-05T13:43:29;24.10;;;6.50;;
22439;SDS011;11387;51.612;7.210;2023-02-05T13:49:35;18.95;;;4.25;;
22439;SDS011;11387;51.612;7.210;2023-02-05T13:55:29;19.50;;;4.10;;
22439;SDS011;11387;51.612;7.210;2023-02-05T13:58:12;18.77;;;4.80;;
22439;SDS011;11387;51.612;7.210;2023-02-05T14:00:52;16.60;;;4.95;;
22439;SDS011;11387;51.612;7.210;2023-02-05T14:03:29;21.55;;;4.00;;
22439;SDS011;11387;51.612;7.210;2023-02-05T14:06:12;17.27;;;4.57;;
22439;SDS011;11387;51.612;7.210;2023-02-05T14:08:45;21.35;;;5.47;;
22439;SDS011;11387;51.612;7.210;2023-02-05T14:11:13;14.35;;;4.35;;
22439;SDS011;11387;51.612;7.210;2023-02-05T14:13:42;19.27;;;4.60;;
22439;SDS011;11387;51.612;7.210;2023-02-05T14:16:41;18.50;;;5.35;;
22439;SDS011;11387;51.612;7.210;2023-02-05T14:19:16;18.15;;;4.63;;
22439;SDS011;11387;51.612;7.210;2023-02-05T14:21:48;20.33;;;4.45;;
22439;SDS011;11387;51.612;7.210;2023-02-05T14:24:37;22.98;;;5.18;;
22439;SDS011;11387;51.612;7.210;2023-02-05T14:30:34;22.15;;;3.58;;
22439;SDS011;11387;51.612;7.210;2023-02-05T14:33:27;21.23;;;3.17;;
22439;SDS011;11387;51.612;7.210;2023-02-05T14:39:17;12.70;;;3.10;;
22439;SDS011;11387;51.612;7.210;2023-02-05T14:41:50;13.10;;;2.45;;
22439;SDS011;11387;51.612;7.210;2023-02-05T14:44:26;15.55;;;2.38;;
22439;SDS011;11387;51.612;7.210;2023-02-05T14:46:58;20.08;;;3.15;;
22439;SDS011;11387;51.612;7.210;2023-02-05T14:49:34;16.65;;;2.20;;
22439;SDS011;11387;51.612;7.210;2023-02-05T14:52:07;19.70;;;3.00;;
22439;SDS011;11387;51.612;7.210;2023-02-05T14:54:48;16.27;;;3.05;;
22439;SDS011;11387;51.612;7.210;2023-02-05T14:57:25;15.32;;;2.33;;
22439;SDS011;11387;51.612;7.210;2023-02-05T15:00:00;16.17;;;2.60;;
22439;SDS011;11387;51.612;7.210;2023-02-05T15:02:47;21.33;;;3.15;;
22439;SDS011;11387;51.612;7.210;2023-02-05T15:05:24;19.65;;;3.58;;
22439;SDS011;11387;51.612;7.210;2023-02-05T15:08:03;14.65;;;2.88;;
22439;SDS011;11387;51.612;7.210;2023-02-05T15:10:42;22.83;;;5.05;;
22439;SDS011;11387;51.612;7.210;2023-02-05T15:13:16;25.73;;;7.70;;
22439;SDS011;11387;51.612;7.210;2023-02-05T15:18:37;18.88;;;3.35;;
22439;SDS011;11387;51.612;7.210;2023-02-05T15:21:09;22.02;;;5.10;;
22439;SDS011;11387;51.612;7.210;2023-02-05T15:23:42;27.67;;;5.45;;
22439;SDS011;11387;51.612;7.210;2023-02-05T15:26:18;27.13;;;4.72;;
22439;SDS011;11387;51.612;7.210;2023-02-05T15:28:56;21.10;;;3.85;;